Time;durP1;ratioP1;P1;durP2;ratioP2;P2;SDS_P1;SDS_P2;PMS_P1;PMS_P2;Temp;Humidity;BMP_temperature;BMP_pressure;BME280_temperature;BME280_humidity;BME280_pressure;Samples;Min_cycle;Max_cycle;Signal;HPM_P1;HPM_P2
2023/04/11 00:01:45;;;;;;;6.23;6.03;;;15.10;17.50;;;;;;5006686;28;20271;-77
2023/04/11 00:04:11;;;;;;;6.40;6.00;;;15.10;17.50;;;;;;5006043;28;20444;-77
2023/04/11 00:06:36;;;;;;;6.87;6.53;;;15.10;17.50;;;;;;5008259;28;20941;-78
2023/04/11 00:09:02;;;;;;;6.37;5.83;;;15.10;17.40;;;;;;5007921;28;20198;-77
2023/04/11 00:11:28;;;;;;;8.73;6.10;;;15.10;17.50;;;;;;5008973;28;20185;-77
2023/04/11 00:13:57;;;;;;;6.73;6.37;;;15.10;17.70;;;;;;5005665;28;20283;-76
2023/04/11 00:16:25;;;;;;;6.20;6.00;;;15.10;17.50;;;;;;5006355;28;20209;-77
2023/04/11 00:18:51;;;;;;;6.47;6.07;;;15.10;17.40;;;;;;5007977;28;20439;-77
2023/04/11 00:21:16;;;;;;;6.97;6.53;;;15.20;17.40;;;;;;5009406;28;20416;-77
2023/04/11 00:23:42;;;;;;;6.50;6.20;;;15.20;17.30;;;;;;5007621;28;20185;-77
2023/04/11 00:26:07;;;;;;;6.10;5.80;;;15.20;17.40;;;;;;5008969;28;20185;-78
2023/04/11 00:28:33;;;;;;;6.37;5.90;;;15.20;17.40;;;;;;5005988;28;20229;-78
2023/04/11 00:31:00;;;;;;;6.93;6.43;;;15.20;17.60;;;;;;5005545;28;20181;-77
2023/04/11 00:33:26;;;;;;;5.90;5.70;;;15.20;17.40;;;;;;5004491;28;20181;-77
2023/04/11 00:35:51;;;;;;;6.00;5.80;;;15.20;17.40;;;;;;5007043;28;20416;-77
2023/04/11 00:38:17;;;;;;;5.70;5.40;;;15.20;17.20;;;;;;5005087;28;20238;-77
2023/04/11 00:40:43;;;;;;;6.43;5.90;;;15.20;17.30;;;;;;5005725;28;20189;-77
2023/04/11 00:43:08;;;;;;;6.47;6.10;;;15.20;17.50;;;;;;5002933;28;20212;-77
2023/04/11 00:45:35;;;;;;;6.40;6.10;;;15.20;17.80;;;;;;5005289;28;20256;-77
2023/04/11 00:48:00;;;;;;;7.23;6.93;;;15.20;17.80;;;;;;5008291;28;20236;-77
2023/04/11 00:50:26;;;;;;;6.50;6.20;;;15.20;17.70;;;;;;5004147;28;20436;-77
2023/04/11 00:52:54;;;;;;;6.83;6.53;;;15.20;18.40;;;;;;5005505;28;20189;-77
2023/04/11 00:55:20;;;;;;;5.93;5.73;;;15.20;19.00;;;;;;5003485;28;20185;-77
2023/04/11 00:57:46;;;;;;;6.37;6.17;;;15.20;18.60;;;;;;5003771;28;20478;-77
2023/04/11 01:00:12;;;;;;;6.60;6.30;;;15.20;18.40;;;;;;5006173;28;20935;-77
2023/04/11 01:02:41;;;;;;;6.90;6.50;;;15.20;18.40;;;;;;5005117;28;20205;-76
2023/04/11 01:05:08;;;;;;;7.57;7.07;;;15.10;18.40;;;;;;5003642;28;20426;-77
2023/04/11 01:07:35;;;;;;;6.90;6.60;;;15.20;18.40;;;;;;5001701;28;20507;-77
2023/04/11 01:10:04;;;;;;;6.90;6.40;;;15.20;18.70;;;;;;5003771;28;20494;-77
2023/04/11 01:12:30;;;;;;;7.40;6.90;;;15.20;18.40;;;;;;5002382;28;20959;-77
2023/04/11 01:14:56;;;;;;;6.83;6.53;;;15.20;18.40;;;;;;5004411;28;20763;-78
2023/04/11 01:17:24;;;;;;;6.23;6.03;;;15.20;19.90;;;;;;5002432;28;20475;-76
2023/04/11 01:19:50;;;;;;;6.47;6.17;;;15.20;20.50;;;;;;5002615;28;20452;-76
2023/04/11 01:22:19;;;;;;;6.83;6.27;;;15.10;19.90;;;;;;5004097;28;20639;-77
2023/04/11 01:24:45;;;;;;;7.30;7.00;;;15.10;19.80;;;;;;5005744;28;20507;-76
2023/04/11 01:27:11;;;;;;;6.60;6.30;;;15.10;19.70;;;;;;5002596;28;20503;-77
2023/04/11 01:29:36;;;;;;;8.00;6.80;;;15.10;19.60;;;;;;5001911;28;20194;-77
2023/04/11 01:32:02;;;;;;;6.10;5.90;;;15.00;19.70;;;;;;5004043;28;20184;-77
2023/04/11 01:34:29;;;;;;;6.87;6.50;;;15.10;21.50;;;;;;5001187;28;20640;-78
2023/04/11 01:36:55;;;;;;;7.07;6.77;;;15.10;23.20;;;;;;5001777;28;20655;-77
2023/04/11 01:39:20;;;;;;;6.40;6.10;;;15.00;24.00;;;;;;5001239;28;20460;-77
2023/04/11 01:41:46;;;;;;;7.73;7.33;;;14.90;25.20;;;;;;5002118;28;20209;-77
2023/04/11 01:44:12;;;;;;;7.50;7.20;;;14.90;25.40;;;;;;5003577;28;20195;-77
2023/04/11 01:46:38;;;;;;;7.20;6.90;;;14.70;26.40;;;;;;5002767;28;20498;-77
2023/04/11 01:49:05;;;;;;;7.43;7.03;;;14.70;26.00;;;;;;5004048;28;20432;-76
2023/04/11 01:51:31;;;;;;;6.87;6.57;;;14.80;26.40;;;;;;5001469;28;20177;-77
2023/04/11 01:53:56;;;;;;;7.13;6.90;;;14.80;25.70;;;;;;5001023;28;20424;-78
2023/04/11 01:56:22;;;;;;;8.57;7.67;;;14.70;27.80;;;;;;4999595;28;20213;-76
2023/04/11 01:58:47;;;;;;;7.40;7.10;;;14.70;27.60;;;;;;5002036;28;20201;-77
2023/04/11 02:01:16;;;;;;;7.00;6.77;;;14.60;28.40;;;;;;5000076;28;20185;-77
2023/04/11 02:03:42;;;;;;;7.47;7.27;;;14.60;27.50;;;;;;5002678;28;20177;-77
2023/04/11 02:06:07;;;;;;;7.37;7.07;;;14.70;27.70;;;;;;5003929;28;20972;-77
2023/04/11 02:08:33;;;;;;;7.90;7.60;;;14.60;28.20;;;;;;4999706;28;20656;-76
2023/04/11 02:10:59;;;;;;;8.30;8.00;;;14.50;29.40;;;;;;5001267;28;20208;-77
2023/04/11 02:13:24;;;;;;;8.60;8.30;;;14.20;31.30;;;;;;5001024;28;20643;-77
2023/04/11 02:15:50;;;;;;;8.97;8.57;;;14.10;30.90;;;;;;5000001;28;20188;-77
2023/04/11 02:18:15;;;;;;;7.80;7.50;;;14.10;31.50;;;;;;5001565;28;20231;-77
2023/04/11 02:20:41;;;;;;;8.47;8.10;;;14.20;30.50;;;;;;5001993;28;20276;-77
2023/04/11 02:23:06;;;;;;;7.40;7.20;;;14.10;30.70;;;;;;5001466;28;20208;-77
2023/04/11 02:25:32;;;;;;;7.00;6.80;;;14.00;31.60;;;;;;5001670;28;20178;-77
2023/04/11 02:27:58;;;;;;;7.73;7.43;;;13.80;32.50;;;;;;5002096;28;20173;-77
2023/04/11 02:30:24;;;;;;;7.73;7.33;;;13.60;34.70;;;;;;5000532;28;20611;-77
2023/04/11 02:32:49;;;;;;;8.23;7.87;;;13.30;37.40;;;;;;5001018;28;20408;-77
2023/04/11 02:35:15;;;;;;;7.73;7.43;;;13.30;36.50;;;;;;5001238;28;20181;-77
2023/04/11 02:37:41;;;;;;;8.00;7.70;;;13.20;37.10;;;;;;5002015;28;20196;-77
2023/04/11 02:40:08;;;;;;;7.40;7.20;;;13.20;37.10;;;;;;5001662;28;20455;-76
2023/04/11 02:42:34;;;;;;;7.30;6.97;;;13.20;37.10;;;;;;5002793;28;20471;-77
2023/04/11 02:45:00;;;;;;;7.97;7.70;;;13.10;38.10;;;;;;5001522;28;20467;-77
2023/04/11 02:47:26;;;;;;;7.10;6.80;;;13.00;39.20;;;;;;5002222;28;20629;-76
2023/04/11 02:49:51;;;;;;;7.17;6.97;;;12.90;40.20;;;;;;5000153;28;20528;-76
2023/04/11 02:52:17;;;;;;;7.67;7.47;;;13.00;39.00;;;;;;5004467;28;20279;-76
2023/04/11 02:54:44;;;;;;;8.50;8.20;;;12.70;40.40;;;;;;5003247;28;20263;-78
2023/04/11 02:57:10;;;;;;;7.30;7.10;;;12.50;42.20;;;;;;5004518;28;20424;-77
2023/04/11 02:59:36;;;;;;;8.50;8.20;;;12.50;40.40;;;;;;5000989;28;20444;-78
2023/04/11 03:02:02;;;;;;;7.97;7.73;;;12.30;42.00;;;;;;5006121;28;20972;-78
2023/04/11 03:04:27;;;;;;;8.63;8.33;;;12.30;42.20;;;;;;5004017;28;20188;-77
2023/04/11 03:06:53;;;;;;;8.33;8.03;;;12.20;41.90;;;;;;5003848;28;20656;-78
2023/04/11 03:09:19;;;;;;;8.67;8.30;;;12.10;42.60;;;;;;5003645;28;20667;-77
2023/04/11 03:11:45;;;;;;;7.60;7.30;;;12.00;42.20;;;;;;5004298;28;20771;-77
2023/04/11 03:14:11;;;;;;;8.33;7.90;;;11.90;43.30;;;;;;5003911;28;20420;-78
2023/04/11 03:16:36;;;;;;;7.97;7.67;;;11.90;43.30;;;;;;5001669;28;20177;-78
2023/04/11 03:19:02;;;;;;;8.30;7.90;;;11.80;44.60;;;;;;5002537;28;20212;-78
2023/04/11 03:21:27;;;;;;;8.60;8.17;;;11.70;46.10;;;;;;5005480;28;20184;-77
2023/04/11 03:23:53;;;;;;;8.03;7.70;;;11.60;46.90;;;;;;5005378;28;20186;-78
2023/04/11 03:26:18;;;;;;;8.40;8.07;;;11.60;46.70;;;;;;5004998;28;20708;-78
2023/04/11 03:28:44;;;;;;;8.17;7.77;;;11.60;45.90;;;;;;5007356;28;20284;-77
2023/04/11 03:31:11;;;;;;;8.40;8.00;;;11.50;47.10;;;;;;5007680;28;20551;-78
2023/04/11 03:33:37;;;;;;;7.97;7.57;;;11.60;46.00;;;;;;5019986;28;20409;-77
2023/04/11 03:36:03;;;;;;;8.20;7.80;;;11.60;46.20;;;;;;5018941;28;20432;-77
2023/04/11 03:38:29;;;;;;;8.70;8.10;;;11.60;45.20;;;;;;5017473;28;20180;-76
2023/04/11 03:40:55;;;;;;;7.90;7.70;;;11.60;46.00;;;;;;5015714;28;20436;-77
2023/04/11 03:43:20;;;;;;;7.63;7.33;;;11.70;46.20;;;;;;5022410;28;20229;-78
2023/04/11 03:45:46;;;;;;;8.47;7.97;;;11.80;45.40;;;;;;5023867;28;20177;-76
2023/04/11 03:48:11;;;;;;;7.90;7.60;;;12.00;45.20;;;;;;5020134;28;20210;-76
2023/04/11 03:50:38;;;;;;;7.77;7.47;;;11.90;45.00;;;;;;5018099;28;20188;-77
2023/04/11 03:53:03;;;;;;;8.70;8.40;;;12.00;44.70;;;;;;5016230;28;20173;-77
2023/04/11 03:55:29;;;;;;;7.53;7.23;;;11.90;44.60;;;;;;5014498;28;20452;-77
2023/04/11 03:57:55;;;;;;;8.80;8.50;;;12.00;44.70;;;;;;5010239;28;20185;-77
2023/04/11 04:00:21;;;;;;;8.23;7.93;;;11.90;43.30;;;;;;5011347;28;20193;-77
2023/04/11 04:02:47;;;;;;;8.33;8.03;;;12.00;44.20;;;;;;5011690;28;20538;-77
2023/04/11 04:05:12;;;;;;;8.50;8.10;;;12.10;43.40;;;;;;5007418;28;20933;-78
2023/04/11 04:07:38;;;;;;;8.60;8.30;;;12.20;43.30;;;;;;5010129;28;20188;-77
2023/04/11 04:10:04;;;;;;;8.87;8.47;;;12.10;42.60;;;;;;5012087;28;20185;-76
2023/04/11 04:12:29;;;;;;;8.93;8.53;;;12.00;43.40;;;;;;5013261;28;20177;-76
2023/04/11 04:14:55;;;;;;;8.97;8.60;;;11.80;44.20;;;;;;5012868;28;20412;-77
2023/04/11 04:17:20;;;;;;;8.57;8.17;;;11.80;45.40;;;;;;5012042;28;20169;-77
2023/04/11 04:19:46;;;;;;;9.07;8.67;;;11.60;45.80;;;;;;5014356;28;20253;-76
2023/04/11 04:22:12;;;;;;;9.33;8.93;;;11.60;45.70;;;;;;5012523;28;20264;-76
2023/04/11 04:24:40;;;;;;;8.73;8.33;;;11.50;46.00;;;;;;5012240;28;20427;-76
2023/04/11 04:27:09;;;;;;;9.73;9.13;;;11.50;46.30;;;;;;5012853;28;20193;-77
2023/04/11 04:29:38;;;;;;;9.80;9.10;;;11.50;47.50;;;;;;5012007;28;20440;-77
2023/04/11 04:32:10;;;;;;;9.00;8.60;;;11.60;45.80;;;;;;5013473;28;20921;-76
2023/04/11 04:34:45;;;;;;;8.90;8.40;;;11.70;45.60;;;;;;5012561;28;20434;-77
2023/04/11 04:37:21;;;;;;;9.33;8.90;;;11.90;43.30;;;;;;5011634;28;20777;-76
2023/04/11 04:39:55;;;;;;;9.17;8.87;;;11.80;43.20;;;;;;5013200;28;20463;-76
2023/04/11 04:42:26;;;;;;;8.43;8.03;;;11.70;43.90;;;;;;5007252;28;20793;-77
2023/04/11 04:44:53;;;;;;;8.60;8.30;;;11.80;42.10;;;;;;5006864;28;20504;-76
2023/04/11 04:47:22;;;;;;;8.37;8.17;;;11.80;40.70;;;;;;5013562;28;20503;-77
2023/04/11 04:49:48;;;;;;;9.53;9.07;;;12.00;40.00;;;;;;5013701;28;20434;-76
2023/04/11 04:52:14;;;;;;;8.67;8.37;;;11.80;40.80;;;;;;5010119;28;21333;-77
2023/04/11 04:54:40;;;;;;;8.20;7.90;;;11.80;39.80;;;;;;5012647;28;20251;-77
2023/04/11 04:57:06;;;;;;;8.60;8.33;;;11.70;40.00;;;;;;5013654;28;20907;-77
2023/04/11 04:59:32;;;;;;;8.30;8.10;;;11.70;38.80;;;;;;5012280;28;20223;-77
2023/04/11 05:01:57;;;;;;;9.80;9.07;;;11.60;40.00;;;;;;5012029;28;20464;-76
2023/04/11 05:04:23;;;;;;;9.40;9.00;;;11.50;39.90;;;;;;5012789;28;20435;-78
2023/04/11 05:06:49;;;;;;;9.83;9.53;;;11.60;40.10;;;;;;5011908;28;20195;-76
2023/04/11 05:09:15;;;;;;;9.03;8.70;;;11.70;39.80;;;;;;5012690;28;20205;-77
2023/04/11 05:11:40;;;;;;;8.83;8.50;;;11.80;39.10;;;;;;5012022;28;20189;-77
2023/04/11 05:14:06;;;;;;;9.50;9.17;;;11.60;39.00;;;;;;5013063;28;20416;-77
2023/04/11 05:16:32;;;;;;;9.30;8.93;;;11.50;38.80;;;;;;5012391;28;20189;-78
2023/04/11 05:18:57;;;;;;;8.33;8.03;;;11.30;38.10;;;;;;5013116;28;20197;-78
2023/04/11 05:21:23;;;;;;;8.53;8.33;;;11.30;37.30;;;;;;5012377;28;20219;-78
2023/04/11 05:23:48;;;;;;;10.10;9.70;;;11.20;38.00;;;;;;5012819;28;20173;-77
2023/04/11 05:26:14;;;;;;;8.63;8.33;;;11.20;37.00;;;;;;5013615;28;20177;-77
2023/04/11 05:28:40;;;;;;;8.37;8.07;;;11.10;38.40;;;;;;5012566;28;20201;-78
2023/04/11 05:31:07;;;;;;;9.13;8.73;;;10.80;39.40;;;;;;5013434;28;20632;-78
2023/04/11 05:33:33;;;;;;;9.10;8.70;;;10.70;39.90;;;;;;5013018;28;20435;-78
2023/04/11 05:35:59;;;;;;;9.67;9.37;;;10.50;38.90;;;;;;5012086;28;20417;-79
2023/04/11 05:38:25;;;;;;;9.23;8.80;;;10.50;39.10;;;;;;5013236;28;20180;-76
2023/04/11 05:40:50;;;;;;;9.30;8.90;;;10.60;38.50;;;;;;4997437;28;20557;-76
2023/04/11 05:43:16;;;;;;;9.17;8.67;;;10.40;39.60;;;;;;5010869;28;20460;-76
2023/04/11 05:45:46;;;;;;;9.77;9.37;;;10.20;39.20;;;;;;5012674;28;20683;-76
2023/04/11 05:48:13;;;;;;;9.50;8.90;;;10.30;40.00;;;;;;5012056;28;20178;-76
2023/04/11 05:50:39;;;;;;;8.80;8.40;;;10.10;40.00;;;;;;5011664;28;20963;-76
2023/04/11 05:53:05;;;;;;;9.07;8.73;;;10.10;41.30;;;;;;5010712;28;20493;-76
2023/04/11 05:55:31;;;;;;;10.37;9.70;;;10.10;41.70;;;;;;5011494;28;20424;-76
2023/04/11 05:57:56;;;;;;;9.03;8.63;;;10.10;40.30;;;;;;5010879;28;20178;-77
2023/04/11 06:00:23;;;;;;;9.67;9.27;;;10.10;41.70;;;;;;5011229;28;20205;-77
2023/04/11 06:02:49;;;;;;;10.20;9.67;;;10.10;41.70;;;;;;5010610;28;20197;-76
2023/04/11 06:05:16;;;;;;;8.80;8.50;;;10.10;39.50;;;;;;5011985;28;20427;-75
2023/04/11 06:07:42;;;;;;;8.40;8.10;;;10.10;41.70;;;;;;5012564;28;20408;-77
2023/04/11 06:10:09;;;;;;;9.30;9.00;;;10.10;39.80;;;;;;5012494;28;20486;-74
2023/04/11 06:12:35;;;;;;;9.43;8.80;;;10.00;39.70;;;;;;5010578;28;20431;-78
2023/04/11 06:15:00;;;;;;;10.00;9.47;;;10.10;39.90;;;;;;5011885;28;20432;-76
2023/04/11 06:20:48;;;;;;;9.70;9.40;;;10.00;40.80;;;;;;5011151;28;20184;-76
2023/04/11 06:23:14;;;;;;;9.50;9.20;;;10.30;40.90;;;;;;5007436;28;20820;-77
2023/04/11 06:25:40;;;;;;;9.67;9.17;;;10.40;39.70;;;;;;5011127;28;20176;-76
2023/04/11 06:28:05;;;;;;;10.00;9.50;;;10.30;39.70;;;;;;5018630;28;20169;-77
2023/04/11 06:30:31;;;;;;;10.30;9.80;;;10.30;39.30;;;;;;5018678;28;20193;-77
2023/04/11 06:32:57;;;;;;;8.67;8.37;;;10.30;41.10;;;;;;5018417;28;20231;-77
2023/04/11 06:35:26;;;;;;;9.20;8.83;;;10.40;40.90;;;;;;5018754;28;20173;-77
2023/04/11 06:37:51;;;;;;;8.90;8.50;;;10.50;41.20;;;;;;5018183;28;20438;-77
2023/04/11 06:40:21;;;;;;;8.80;8.50;;;10.40;40.30;;;;;;5017587;28;20452;-78
2023/04/11 06:42:47;;;;;;;9.40;9.00;;;10.40;40.50;;;;;;5018160;28;20196;-76
2023/04/11 06:45:12;;;;;;;8.80;8.30;;;10.30;41.60;;;;;;5018248;28;20435;-76
2023/04/11 06:47:38;;;;;;;8.77;8.47;;;10.30;40.30;;;;;;5018282;28;20755;-76
2023/04/11 06:50:04;;;;;;;8.43;8.13;;;10.30;40.30;;;;;;5017643;28;20201;-76
2023/04/11 06:52:30;;;;;;;8.63;8.23;;;10.30;40.30;;;;;;5016116;28;20181;-77
2023/04/11 06:54:55;;;;;;;8.57;8.17;;;10.40;41.00;;;;;;5018405;28;20412;-78
2023/04/11 06:57:21;;;;;;;8.20;7.90;;;10.50;39.30;;;;;;5018320;28;20249;-77
2023/04/11 06:59:46;;;;;;;8.70;8.20;;;10.40;39.40;;;;;;5018757;28;20216;-76
2023/04/11 07:02:12;;;;;;;8.83;8.50;;;10.30;39.80;;;;;;5015988;28;20208;-77
2023/04/11 07:04:38;;;;;;;9.00;8.70;;;10.40;39.30;;;;;;5018942;28;20172;-76
2023/04/11 07:07:03;;;;;;;9.20;8.80;;;10.30;39.10;;;;;;5015652;28;20432;-77
2023/04/11 07:09:29;;;;;;;8.90;8.60;;;10.40;39.80;;;;;;5017914;28;20193;-75
2023/04/11 07:11:55;;;;;;;8.97;8.40;;;10.30;39.30;;;;;;5015375;28;20215;-76
2023/04/11 07:14:21;;;;;;;9.30;8.70;;;10.30;39.60;;;;;;5017628;28;20174;-76
2023/04/11 07:16:46;;;;;;;9.10;8.70;;;10.30;40.10;;;;;;5017596;28;20418;-76
2023/04/11 07:19:12;;;;;;;8.80;8.40;;;10.40;39.60;;;;;;5016958;28;20222;-77
2023/04/11 07:21:37;;;;;;;8.70;8.30;;;10.30;38.00;;;;;;5018500;28;20192;-77
2023/04/11 07:24:05;;;;;;;8.63;8.33;;;10.40;39.90;;;;;;5018284;28;20169;-78
2023/04/11 07:26:30;;;;;;;9.67;9.27;;;10.50;40.20;;;;;;5017085;28;20181;-79
2023/04/11 07:28:56;;;;;;;8.20;7.90;;;10.60;39.10;;;;;;5016937;28;20436;-79
2023/04/11 07:31:22;;;;;;;8.40;8.10;;;10.70;38.40;;;;;;5016491;28;20181;-79
2023/04/11 07:33:47;;;;;;;8.57;8.17;;;10.70;40.20;;;;;;5017365;28;20196;-77
2023/04/11 07:36:13;;;;;;;8.87;8.27;;;10.70;38.10;;;;;;5016945;28;20659;-77
2023/04/11 07:38:38;;;;;;;8.60;8.13;;;10.80;37.90;;;;;;5014512;28;20189;-79
2023/04/11 07:41:05;;;;;;;9.17;8.40;;;10.90;37.00;;;;;;5014968;28;20212;-77
2023/04/11 07:43:30;;;;;;;8.83;8.43;;;10.70;35.20;;;;;;5014224;28;20197;-78
2023/04/11 07:45:57;;;;;;;9.60;9.00;;;10.70;35.40;;;;;;5013858;28;20420;-77
2023/04/11 07:48:24;;;;;;;9.20;8.63;;;10.80;36.90;;;;;;5015084;28;20180;-79
2023/04/11 07:50:51;;;;;;;9.17;8.87;;;10.80;35.10;;;;;;5014209;28;20416;-77
2023/04/11 07:53:17;;;;;;;9.50;8.83;;;11.00;33.70;;;;;;5013484;28;20409;-78
2023/04/11 07:55:42;;;;;;;10.03;9.37;;;11.10;33.30;;;;;;5014879;28;20416;-77
2023/04/11 07:58:08;;;;;;;9.93;9.43;;;11.30;32.60;;;;;;5013631;28;20189;-78
2023/04/11 08:00:34;;;;;;;8.63;8.20;;;11.20;32.50;;;;;;5013432;28;20224;-77
2023/04/11 08:03:04;;;;;;;9.10;8.37;;;11.20;32.50;;;;;;5014507;28;20229;-77
2023/04/11 08:05:30;;;;;;;9.63;8.93;;;11.10;31.70;;;;;;5014217;28;20843;-78
2023/04/11 08:07:56;;;;;;;10.30;9.73;;;11.00;34.00;;;;;;5014867;28;20752;-77
2023/04/11 08:10:22;;;;;;;9.40;8.80;;;11.10;32.50;;;;;;5013591;28;20444;-77
2023/04/11 08:12:48;;;;;;;9.70;9.00;;;11.10;32.50;;;;;;5014093;28;20188;-77
2023/04/11 08:15:14;;;;;;;10.07;9.60;;;11.10;31.90;;;;;;5014471;28;20415;-77
2023/04/11 08:17:42;;;;;;;9.17;8.77;;;11.20;30.00;;;;;;5014053;28;20417;-77
2023/04/11 08:20:09;;;;;;;10.17;9.57;;;11.20;30.80;;;;;;5013100;28;20432;-77
2023/04/11 08:22:35;;;;;;;9.10;8.50;;;11.30;30.80;;;;;;5013966;28;20456;-76
2023/04/11 08:25:01;;;;;;;8.83;8.30;;;11.50;29.30;;;;;;5014255;28;20496;-77
2023/04/11 08:27:26;;;;;;;9.13;8.60;;;11.40;29.80;;;;;;5014501;28;20165;-77
2023/04/11 08:29:52;;;;;;;9.50;8.80;;;11.30;28.80;;;;;;5014247;28;20428;-77
2023/04/11 08:32:17;;;;;;;9.07;8.47;;;11.20;28.10;;;;;;5011773;28;20550;-77
2023/04/11 08:34:43;;;;;;;9.40;8.80;;;11.20;28.20;;;;;;5012599;28;20193;-77
2023/04/11 08:37:09;;;;;;;9.77;9.20;;;11.10;28.10;;;;;;5014162;28;20177;-78
2023/04/11 08:39:34;;;;;;;8.57;8.07;;;11.20;28.80;;;;;;5013406;28;20216;-78
2023/04/11 08:42:00;;;;;;;8.40;7.80;;;11.20;28.50;;;;;;5012944;28;20284;-78
2023/04/11 08:44:26;;;;;;;8.80;8.10;;;11.30;27.90;;;;;;5015068;28;20538;-78
2023/04/11 08:46:51;;;;;;;9.40;8.63;;;11.30;27.80;;;;;;5014434;28;20594;-77
2023/04/11 08:49:17;;;;;;;7.93;7.50;;;11.30;27.70;;;;;;5014370;28;20726;-78
2023/04/11 08:51:44;;;;;;;9.30;8.60;;;11.50;27.90;;;;;;5013907;28;20215;-77
2023/04/11 08:54:10;;;;;;;8.67;8.10;;;11.60;27.00;;;;;;5012845;28;20459;-77
2023/04/11 08:56:36;;;;;;;8.50;7.90;;;11.50;25.20;;;;;;5013977;28;20412;-78
2023/04/11 08:59:02;;;;;;;8.30;7.67;;;11.50;24.90;;;;;;5014919;28;20205;-78
2023/04/11 09:01:30;;;;;;;8.13;7.70;;;11.40;25.50;;;;;;5013515;28;20472;-77
2023/04/11 09:03:56;;;;;;;8.97;8.17;;;11.50;25.30;;;;;;5013312;28;20178;-77
2023/04/11 09:06:22;;;;;;;8.20;7.70;;;11.60;24.70;;;;;;5013268;28;20774;-77
2023/04/11 09:08:48;;;;;;;7.90;7.50;;;11.70;24.40;;;;;;5013423;28;20441;-77
2023/04/11 09:11:13;;;;;;;8.40;7.90;;;11.80;24.40;;;;;;5011584;28;20172;-77
2023/04/11 09:13:39;;;;;;;8.60;7.90;;;11.80;23.50;;;;;;5012235;28;20173;-77
2023/04/11 09:16:08;;;;;;;8.87;8.10;;;11.90;23.70;;;;;;5013135;28;20671;-77
2023/04/11 09:18:38;;;;;;;8.50;8.07;;;12.00;24.00;;;;;;5013006;28;20573;-77
2023/04/11 09:21:14;;;;;;;7.90;7.27;;;12.10;22.60;;;;;;5012091;28;20415;-77
2023/04/11 09:23:40;;;;;;;7.70;7.30;;;12.00;23.00;;;;;;5012051;28;20454;-76
2023/04/11 09:26:07;;;;;;;8.30;7.80;;;12.10;22.50;;;;;;5013423;28;20423;-77
2023/04/11 09:31:55;;;;;;;7.53;7.13;;;12.20;22.80;;;;;;5014763;28;20801;-78
2023/04/11 09:34:26;;;;;;;9.07;8.37;;;12.40;22.30;;;;;;5002856;28;20932;-78
2023/04/11 09:36:55;;;;;;;7.53;7.13;;;12.40;22.00;;;;;;4994520;28;20386;-77
2023/04/11 09:39:21;;;;;;;8.40;7.73;;;12.30;21.80;;;;;;4993803;28;20448;-78
2023/04/11 09:41:47;;;;;;;7.53;7.23;;;12.30;22.30;;;;;;4993171;28;20475;-77
2023/04/11 09:44:12;;;;;;;7.53;6.93;;;12.30;21.00;;;;;;4993436;28;20413;-77
2023/04/11 09:46:58;;;;;;;8.70;8.00;;;12.30;21.60;;;;;;4993304;28;20170;-77
2023/04/11 09:49:23;;;;;;;7.67;7.13;;;12.40;21.90;;;;;;4994299;28;20205;-76
2023/04/11 09:51:50;;;;;;;7.57;7.17;;;12.40;21.00;;;;;;4999380;28;20433;-76
2023/04/11 09:54:17;;;;;;;7.23;6.60;;;12.50;20.00;;;;;;4993012;28;20174;-76
2023/04/11 09:56:42;;;;;;;7.10;6.60;;;12.50;20.10;;;;;;4993201;28;20470;-77
2023/04/11 09:59:08;;;;;;;7.27;6.70;;;12.60;19.70;;;;;;4993356;28;20803;-79
2023/04/11 10:01:35;;;;;;;6.60;6.20;;;12.70;19.50;;;;;;4992258;28;20205;-78
2023/04/11 10:04:03;;;;;;;8.50;7.80;;;12.70;19.90;;;;;;4991617;28;20421;-79
2023/04/11 10:06:33;;;;;;;8.57;7.97;;;12.70;19.30;;;;;;4991689;28;20788;-77
2023/04/11 10:09:26;;;;;;;7.40;6.80;;;12.60;19.50;;;;;;4992199;28;20868;-77
2023/04/11 10:11:51;;;;;;;7.50;6.93;;;12.70;19.90;;;;;;4992655;28;20421;-77
2023/04/11 10:14:36;;;;;;;9.17;8.57;;;12.70;19.90;;;;;;4996408;28;20752;-77
2023/04/11 10:17:13;;;;;;;8.37;7.87;;;12.80;19.80;;;;;;4995641;28;20597;-78
2023/04/11 10:19:39;;;;;;;7.73;7.10;;;12.80;20.30;;;;;;4993779;28;20436;-77
2023/04/11 10:22:04;;;;;;;7.37;6.90;;;12.80;20.00;;;;;;4993203;28;20502;-78
2023/04/11 10:24:30;;;;;;;7.67;7.17;;;12.80;20.20;;;;;;4993371;28;20421;-78
2023/04/11 10:26:59;;;;;;;8.00;7.50;;;12.90;20.80;;;;;;4993646;28;20693;-78
2023/04/11 10:29:39;;;;;;;7.20;6.80;;;13.00;20.40;;;;;;4994183;28;20236;-78
2023/04/11 10:32:14;;;;;;;7.47;7.07;;;12.90;21.00;;;;;;4993220;28;20412;-77
2023/04/11 10:35:00;;;;;;;8.13;7.80;;;12.90;24.60;;;;;;4993280;28;20508;-78
2023/04/11 10:37:28;;;;;;;9.53;8.83;;;12.60;26.30;;;;;;4991136;28;20820;-77
2023/04/11 10:39:56;;;;;;;9.00;8.50;;;12.30;27.50;;;;;;4991407;28;20464;-77
2023/04/11 10:42:28;;;;;;;9.50;8.80;;;12.10;28.70;;;;;;4992560;28;20547;-78
2023/04/11 10:45:16;;;;;;;9.33;8.67;;;12.10;28.20;;;;;;4991452;28;20421;-78
2023/04/11 10:47:43;;;;;;;9.30;8.80;;;12.20;26.20;;;;;;4992857;28;20409;-78
2023/04/11 10:50:30;;;;;;;8.87;8.30;;;12.10;26.40;;;;;;4991649;28;20440;-78
2023/04/11 10:53:02;;;;;;;9.43;8.73;;;12.20;25.70;;;;;;4991281;28;20472;-77
2023/04/11 10:55:29;;;;;;;8.03;7.63;;;12.20;25.60;;;;;;4992908;28;20902;-78
2023/04/11 10:58:08;;;;;;;8.10;7.80;;;12.40;24.90;;;;;;4991748;28;20419;-77
2023/04/11 11:00:49;;;;;;;8.50;8.00;;;12.40;23.50;;;;;;4992923;28;20447;-77
2023/04/11 11:03:20;;;;;;;7.60;6.90;;;12.50;22.30;;;;;;4991221;28;20465;-78
2023/04/11 11:05:46;;;;;;;7.23;6.93;;;12.60;21.00;;;;;;4992579;28;20398;-77
2023/04/11 11:08:12;;;;;;;8.83;8.03;;;12.70;21.00;;;;;;4992788;28;20919;-78
2023/04/11 11:10:47;;;;;;;8.33;7.83;;;12.80;20.40;;;;;;5006366;28;20432;-78
2023/04/11 11:13:15;;;;;;;7.60;7.20;;;12.80;20.20;;;;;;5010795;28;20185;-79
2023/04/11 11:15:47;;;;;;;8.40;7.90;;;12.90;19.40;;;;;;5015111;28;20420;-77
2023/04/11 11:18:14;;;;;;;7.80;7.30;;;13.00;18.60;;;;;;5014464;28;20474;-77
2023/04/11 11:20:40;;;;;;;7.90;7.50;;;12.90;17.80;;;;;;5015757;28;20408;-78
2023/04/11 11:23:08;;;;;;;8.00;7.20;;;12.80;18.40;;;;;;5013865;28;20524;-77
2023/04/11 11:25:34;;;;;;;7.87;7.47;;;12.80;18.30;;;;;;5015503;28;20201;-78
2023/04/11 11:28:06;;;;;;;8.60;8.10;;;12.90;17.90;;;;;;5015909;28;20495;-77
2023/04/11 11:30:32;;;;;;;8.60;7.90;;;13.10;17.00;;;;;;5015710;28;20457;-77
2023/04/11 11:32:58;;;;;;;8.50;8.10;;;13.00;17.40;;;;;;5015112;28;20409;-78
2023/04/11 11:35:24;;;;;;;9.30;8.50;;;13.10;17.00;;;;;;5015651;28;21034;-78
2023/04/11 11:37:51;;;;;;;8.30;7.70;;;13.20;17.10;;;;;;5015589;28;20184;-78
2023/04/11 11:40:20;;;;;;;9.07;8.57;;;13.30;17.20;;;;;;5015361;28;20502;-78
2023/04/11 11:42:50;;;;;;;8.70;8.30;;;13.40;17.20;;;;;;5013190;28;20479;-78
2023/04/11 11:45:17;;;;;;;9.50;9.00;;;13.50;16.70;;;;;;5015711;28;20404;-77
2023/04/11 11:47:45;;;;;;;8.60;8.20;;;13.60;16.90;;;;;;5015471;28;20432;-77
2023/04/11 11:50:11;;;;;;;8.33;7.83;;;13.70;15.70;;;;;;5014443;28;20471;-77
2023/04/11 11:52:40;;;;;;;8.10;7.70;;;13.80;16.30;;;;;;5014047;28;20785;-77
2023/04/11 11:55:18;;;;;;;8.80;8.30;;;13.80;15.70;;;;;;5013886;28;20470;-77
2023/04/11 11:57:47;;;;;;;9.03;8.63;;;13.80;15.00;;;;;;5015335;28;20419;-76
2023/04/11 12:00:53;;;;;;;9.10;8.50;;;13.80;15.50;;;;;;5014940;28;20527;-77
2023/04/11 12:03:23;;;;;;;8.97;8.50;;;13.80;14.70;;;;;;5014428;28;20466;-76
2023/04/11 12:05:52;;;;;;;8.97;8.57;;;13.80;14.60;;;;;;5015239;28;20779;-77
2023/04/11 12:08:20;;;;;;;7.83;7.33;;;13.70;14.20;;;;;;5014789;28;20776;-76
2023/04/11 12:10:46;;;;;;;8.17;7.67;;;13.90;14.00;;;;;;5014833;28;20404;-76
2023/04/11 12:13:15;;;;;;;8.43;7.97;;;13.90;14.10;;;;;;5012433;28;20927;-76
2023/04/11 12:15:45;;;;;;;8.33;7.53;;;13.80;14.00;;;;;;5014806;28;20408;-76
2023/04/11 12:18:10;;;;;;;8.00;7.50;;;13.90;13.10;;;;;;5013985;28;20831;-76
2023/04/11 12:20:36;;;;;;;8.00;7.50;;;13.90;12.30;;;;;;5014740;28;20491;-77
2023/04/11 12:23:01;;;;;;;7.90;7.50;;;13.90;12.20;;;;;;5011385;28;20606;-76
2023/04/11 12:25:27;;;;;;;8.63;8.20;;;13.80;13.10;;;;;;5013722;28;20571;-76
2023/04/11 12:27:53;;;;;;;7.97;7.57;;;13.70;13.50;;;;;;5012059;28;20182;-76
2023/04/11 12:30:19;;;;;;;8.33;7.77;;;13.70;13.10;;;;;;5013540;28;20185;-76
2023/04/11 12:32:44;;;;;;;8.40;7.90;;;13.70;13.70;;;;;;5013453;28;20181;-76
2023/04/11 12:35:11;;;;;;;8.30;7.80;;;13.60;14.20;;;;;;5012938;28;20654;-77
2023/04/11 12:37:37;;;;;;;7.90;7.40;;;13.60;14.30;;;;;;5013134;28;20682;-77
2023/04/11 12:40:10;;;;;;;8.03;7.47;;;13.60;14.80;;;;;;5013684;28;20495;-76
2023/04/11 12:42:37;;;;;;;7.77;7.17;;;13.70;14.70;;;;;;5013624;28;20993;-77
2023/04/11 12:45:04;;;;;;;8.07;7.37;;;13.70;14.10;;;;;;5014355;28;20420;-76
2023/04/11 12:47:30;;;;;;;8.13;7.63;;;13.70;13.60;;;;;;5013091;28;20412;-77
2023/04/11 12:49:55;;;;;;;7.60;7.17;;;13.70;14.20;;;;;;5012789;28;20870;-75
2023/04/11 12:52:21;;;;;;;6.90;6.50;;;13.70;14.30;;;;;;5008825;28;20314;-77